sim
Sign-in with your pilot id or email,
or register
Callsign
Passwort

Schedule Details

Flight Number: OEO6671
Departure: Paris Charles de Gaulle Airport (LFPG) at 09:10
Arrival: Munich Airport (EDDM) at 11:05

Weather Information
Getting current METAR information for LFPG 190130Z 10009KT CAVOK 21/14 Q1013 NOSIG
Getting current METAR information for EDDM 190150Z 04004KT CAVOK 07/05 Q1021 NOSIG

Schedule Frequency

Route Map